KSCR/SCR METAR and TAF weather

Enter ICAO airport designator
Station Type Date Time Source
KSCR METAR 2019/08/24 22:15 UTC NOAA

KSCR 242215Z AUTO 04007KT 10SM -RA OVC031 18/16 A3013 RMK AO2 T01770164


Station Type Date Time Source
KSCR Decoded METAR 2019/08/24 22:15 UTC NOAA

Station name not available
Aug 24, 2019 - 06:15 PM EDT / 2019.08.24 2215 UTC
Wind: from the NE (040 degrees) at 8 MPH (7 KT):0
Visibility: 10 mile(s):0
Sky conditions: overcast
Weather: light rain
Temperature: 63.9 F (17.7 C)
Dew Point: 61.5 F (16.4 C)
Relative Humidity: 92%
Pressure (altimeter): 30.13 in. Hg (1020 hPa)
ob: KSCR 242215Z AUTO 04007KT 10SM -RA OVC031 18/16 A3013 RMK AO2 T01770164
cycle: 22

Station Type Date Time Source
KSCR TAF UTC NOAA

Error!

Example: see airport list